Time;durP1;ratioP1;P1;durP2;ratioP2;P2;SDS_P1;SDS_P2;PMS_P1;PMS_P2;Temp;Humidity;BMP_temperature;BMP_pressure;BME280_temperature;BME280_humidity;BME280_pressure;Samples;Min_cycle;Max_cycle;Signal;HPM_P1;HPM_P2
2022/12/18 00:00:03;;;;;;;111.47;38.27;;;;;;;;;;5068992;28;20302;-63
2022/12/18 00:02:29;;;;;;;124.20;37.17;;;;;;;;;;5060142;28;20295;-63
2022/12/18 00:04:55;;;;;;;125.37;42.80;;;;;;;;;;5068859;28;20309;-63
2022/12/18 00:07:21;;;;;;;105.33;33.30;;;;;;;;;;5069054;28;20063;-63
2022/12/18 00:09:47;;;;;;;117.07;38.20;;;;;;;;;;5050937;28;20302;-63
2022/12/18 00:12:13;;;;;;;118.87;39.67;;;;;;;;;;5068447;28;20279;-63
2022/12/18 00:14:39;;;;;;;119.57;42.27;;;;;;;;;;5068971;28;20622;-62
2022/12/18 00:17:05;;;;;;;134.43;44.27;;;;;;;;;;5056428;28;20345;-63
2022/12/18 00:19:31;;;;;;;116.40;41.13;;;;;;;;;;5049028;28;20045;-63
2022/12/18 00:21:58;;;;;;;126.87;41.50;;;;;;;;;;5056416;28;20454;-62
2022/12/18 00:24:24;;;;;;;129.73;43.07;;;;;;;;;;5066105;28;20083;-63
2022/12/18 00:26:50;;;;;;;136.57;45.17;;;;;;;;;;5068754;28;20365;-62
2022/12/18 00:29:16;;;;;;;129.40;40.33;;;;;;;;;;5068666;28;20369;-63
2022/12/18 00:31:43;;;;;;;117.77;40.97;;;;;;;;;;5068040;28;20044;-63
2022/12/18 00:34:10;;;;;;;130.73;44.27;;;;;;;;;;5067236;28;20287;-63
2022/12/18 00:36:36;;;;;;;123.00;41.90;;;;;;;;;;5059572;28;20764;-63
2022/12/18 00:39:04;;;;;;;134.47;43.57;;;;;;;;;;5058890;28;20326;-63
2022/12/18 00:44:16;;;;;;;136.93;45.07;;;;;;;;;;5055300;28;20840;-62
2022/12/18 00:46:43;;;;;;;152.00;46.47;;;;;;;;;;5068331;28;20782;-62
2022/12/18 00:49:09;;;;;;;143.73;45.93;;;;;;;;;;5067781;28;20321;-63
2022/12/18 00:51:35;;;;;;;148.30;45.50;;;;;;;;;;5057936;28;20296;-63
2022/12/18 00:54:01;;;;;;;136.57;44.10;;;;;;;;;;5047905;28;20718;-63
2022/12/18 00:56:27;;;;;;;129.97;45.07;;;;;;;;;;5047069;28;20056;-63
2022/12/18 00:58:53;;;;;;;145.03;47.70;;;;;;;;;;5049270;28;20292;-63
2022/12/18 01:01:19;;;;;;;155.83;46.80;;;;;;;;;;5049818;28;20298;-63
2022/12/18 01:03:46;;;;;;;153.63;48.23;;;;;;;;;;5052531;28;20336;-63
2022/12/18 01:06:13;;;;;;;149.20;47.63;;;;;;;;;;5052341;28;20311;-63
2022/12/18 01:08:39;;;;;;;140.33;45.97;;;;;;;;;;5058384;28;20818;-62
2022/12/18 01:11:09;;;;;;;150.27;51.00;;;;;;;;;;5072155;28;20358;-63
2022/12/18 01:13:35;;;;;;;145.07;47.77;;;;;;;;;;5072483;28;20303;-63
2022/12/18 01:16:01;;;;;;;146.27;43.23;;;;;;;;;;5072253;28;20298;-63
2022/12/18 01:18:27;;;;;;;140.40;46.23;;;;;;;;;;5072248;28;20279;-63
2022/12/18 01:20:53;;;;;;;134.13;44.30;;;;;;;;;;5071250;28;20649;-63
2022/12/18 01:23:19;;;;;;;126.37;41.90;;;;;;;;;;5072027;28;20784;-63
2022/12/18 01:25:45;;;;;;;130.47;42.97;;;;;;;;;;5072089;28;20403;-63
2022/12/18 01:28:11;;;;;;;136.30;44.77;;;;;;;;;;5071905;28;20569;-63
2022/12/18 01:30:38;;;;;;;138.23;48.43;;;;;;;;;;5072198;28;20283;-63
2022/12/18 01:33:06;;;;;;;132.90;41.03;;;;;;;;;;5071121;28;20048;-63
2022/12/18 01:35:32;;;;;;;146.37;44.97;;;;;;;;;;5061943;28;20370;-62
2022/12/18 01:37:58;;;;;;;143.60;44.77;;;;;;;;;;5052069;28;20355;-63
2022/12/18 01:40:24;;;;;;;131.73;43.73;;;;;;;;;;5052069;28;20287;-63
2022/12/18 01:42:54;;;;;;;130.93;44.63;;;;;;;;;;5051840;28;20307;-63
2022/12/18 01:45:30;;;;;;;140.30;40.83;;;;;;;;;;5051466;28;20307;-62
2022/12/18 01:47:58;;;;;;;131.20;43.07;;;;;;;;;;5051131;28;20322;-63
2022/12/18 01:50:27;;;;;;;135.30;41.57;;;;;;;;;;5059905;28;20295;-62
2022/12/18 01:52:56;;;;;;;123.73;40.43;;;;;;;;;;5059056;28;20299;-62
2022/12/18 01:55:24;;;;;;;141.90;44.23;;;;;;;;;;5051509;28;20615;-63
2022/12/18 01:57:53;;;;;;;137.10;46.07;;;;;;;;;;5059840;28;20306;-62
2022/12/18 02:00:20;;;;;;;135.60;45.47;;;;;;;;;;5071399;28;20283;-62
2022/12/18 02:02:47;;;;;;;142.53;46.80;;;;;;;;;;5071568;28;20283;-62
2022/12/18 02:05:16;;;;;;;140.33;46.17;;;;;;;;;;5061694;28;20368;-62
2022/12/18 02:08:12;;;;;;;130.47;44.53;;;;;;;;;;5050281;28;20330;-62
2022/12/18 02:10:53;;;;;;;129.33;42.73;;;;;;;;;;5013830;28;20301;-62
2022/12/18 02:13:20;;;;;;;126.90;42.93;;;;;;;;;;5050665;28;20378;-62
2022/12/18 02:15:58;;;;;;;132.10;42.07;;;;;;;;;;5051284;28;20302;-62
2022/12/18 02:18:27;;;;;;;124.60;43.60;;;;;;;;;;5050906;28;20287;-62
2022/12/18 02:21:05;;;;;;;147.67;44.20;;;;;;;;;;5051255;28;20346;-62
2022/12/18 02:23:43;;;;;;;147.13;41.90;;;;;;;;;;5064062;28;20376;-62
2022/12/18 02:26:37;;;;;;;132.30;40.10;;;;;;;;;;5067682;28;20943;-62
2022/12/18 02:29:09;;;;;;;137.20;43.65;;;;;;;;;;5054908;28;20336;-62
2022/12/18 02:31:38;;;;;;;117.73;40.17;;;;;;;;;;5070526;28;20147;-62
2022/12/18 02:34:06;;;;;;;133.30;39.93;;;;;;;;;;5065207;28;20291;-62
2022/12/18 02:36:32;;;;;;;135.80;40.07;;;;;;;;;;5049438;28;20832;-62
2022/12/18 02:38:59;;;;;;;129.73;41.97;;;;;;;;;;5050626;28;20390;-62
2022/12/18 02:41:26;;;;;;;126.83;43.00;;;;;;;;;;5050853;28;20287;-62
2022/12/18 02:43:59;;;;;;;150.53;44.70;;;;;;;;;;5070198;28;20302;-62
2022/12/18 02:46:40;;;;;;;125.22;42.78;;;;;;;;;;5070481;28;20886;-62
2022/12/18 02:49:13;;;;;;;127.57;42.57;;;;;;;;;;5068358;28;20181;-62
2022/12/18 02:51:42;;;;;;;126.80;42.03;;;;;;;;;;5070124;28;20847;-62
2022/12/18 02:54:14;;;;;;;135.53;41.13;;;;;;;;;;5069484;28;20517;-62
2022/12/18 02:56:46;;;;;;;133.33;42.77;;;;;;;;;;5053693;28;20308;-62
2022/12/18 02:59:14;;;;;;;122.27;45.07;;;;;;;;;;5050077;28;21094;-62
2022/12/18 03:01:53;;;;;;;121.90;40.53;;;;;;;;;;5049646;28;20295;-62
2022/12/18 03:04:31;;;;;;;135.33;40.17;;;;;;;;;;5050151;28;20792;-62
2022/12/18 03:06:59;;;;;;;123.33;42.23;;;;;;;;;;5050239;28;20728;-62
2022/12/18 03:09:30;;;;;;;118.53;39.70;;;;;;;;;;5050658;28;20840;-62
2022/12/18 03:14:45;;;;;;;131.87;37.03;;;;;;;;;;5050126;28;20284;-62
2022/12/18 03:17:14;;;;;;;118.90;40.20;;;;;;;;;;5055924;28;20298;-62
2022/12/18 03:19:41;;;;;;;126.43;43.63;;;;;;;;;;5069985;28;20285;-62
2022/12/18 03:22:08;;;;;;;118.47;38.40;;;;;;;;;;5068240;28;20295;-62
2022/12/18 03:24:38;;;;;;;127.47;38.40;;;;;;;;;;5067757;28;20294;-62
2022/12/18 03:27:06;;;;;;;140.57;44.67;;;;;;;;;;5070134;28;20297;-62
2022/12/18 03:29:44;;;;;;;137.33;43.33;;;;;;;;;;5069553;28;20344;-62
2022/12/18 03:32:21;;;;;;;125.60;41.27;;;;;;;;;;5059836;28;20299;-62
2022/12/18 03:34:49;;;;;;;125.00;39.93;;;;;;;;;;5047889;28;20287;-62
2022/12/18 03:37:15;;;;;;;109.00;38.90;;;;;;;;;;5049273;28;20295;-62
2022/12/18 03:39:41;;;;;;;113.63;38.67;;;;;;;;;;5049386;28;20284;-62
2022/12/18 03:42:13;;;;;;;118.07;40.40;;;;;;;;;;5048776;28;20299;-62
2022/12/18 03:44:52;;;;;;;117.50;38.63;;;;;;;;;;5049256;28;20708;-62
2022/12/18 03:47:30;;;;;;;120.70;40.37;;;;;;;;;;5061560;28;20306;-62
2022/12/18 03:49:56;;;;;;;125.17;39.03;;;;;;;;;;5069322;28;20275;-62
2022/12/18 03:52:22;;;;;;;115.50;39.70;;;;;;;;;;5050387;28;20299;-62
2022/12/18 03:54:48;;;;;;;109.33;39.23;;;;;;;;;;5049411;28;20088;-62
2022/12/18 03:57:19;;;;;;;109.00;36.23;;;;;;;;;;5048880;28;20041;-62
2022/12/18 03:59:47;;;;;;;104.07;36.70;;;;;;;;;;5049221;28;20284;-62
2022/12/18 04:02:14;;;;;;;108.30;36.63;;;;;;;;;;5048574;28;20298;-62
2022/12/18 04:04:41;;;;;;;101.83;36.40;;;;;;;;;;5049362;28;20291;-62
2022/12/18 04:07:07;;;;;;;107.87;36.10;;;;;;;;;;5048854;28;20299;-62
2022/12/18 04:09:34;;;;;;;115.60;37.60;;;;;;;;;;5049519;28;20381;-64
2022/12/18 04:12:00;;;;;;;93.87;34.83;;;;;;;;;;5048942;28;20552;-62
2022/12/18 04:14:26;;;;;;;105.77;37.27;;;;;;;;;;5053573;28;20287;-62
2022/12/18 04:16:52;;;;;;;107.60;36.80;;;;;;;;;;5068287;28;20286;-62
2022/12/18 04:19:18;;;;;;;102.60;35.60;;;;;;;;;;5066768;28;20287;-62
2022/12/18 04:21:44;;;;;;;97.70;35.47;;;;;;;;;;5068567;28;20290;-62
2022/12/18 04:24:10;;;;;;;117.17;40.13;;;;;;;;;;5068560;28;20287;-62
2022/12/18 04:26:36;;;;;;;92.30;34.13;;;;;;;;;;5068930;28;20303;-62
2022/12/18 04:29:03;;;;;;;103.73;32.07;;;;;;;;;;5062508;28;20310;-62
2022/12/18 04:31:29;;;;;;;89.40;33.63;;;;;;;;;;5048263;28;20296;-62
2022/12/18 04:33:55;;;;;;;96.73;34.50;;;;;;;;;;5052159;28;20302;-62
2022/12/18 04:36:21;;;;;;;92.90;31.33;;;;;;;;;;5068478;28;21020;-62
2022/12/18 04:38:47;;;;;;;82.03;32.83;;;;;;;;;;5068601;28;20310;-62
2022/12/18 04:41:13;;;;;;;94.80;32.63;;;;;;;;;;5068027;28;20329;-62
2022/12/18 04:43:39;;;;;;;92.83;32.30;;;;;;;;;;5063641;28;20700;-62
2022/12/18 04:46:07;;;;;;;87.80;32.27;;;;;;;;;;5048109;28;20831;-62
2022/12/18 04:48:33;;;;;;;87.37;31.00;;;;;;;;;;5048536;28;20690;-62
2022/12/18 04:50:59;;;;;;;89.00;33.27;;;;;;;;;;5048056;28;20271;-62
2022/12/18 04:53:25;;;;;;;86.10;33.03;;;;;;;;;;5048351;28;20291;-62
2022/12/18 04:56:02;;;;;;;73.43;26.97;;;;;;;;;;5048597;28;20290;-62
2022/12/18 04:58:28;;;;;;;77.60;28.53;;;;;;;;;;5048616;28;20375;-62
2022/12/18 05:00:54;;;;;;;76.60;28.40;;;;;;;;;;5047708;28;20779;-62
2022/12/18 05:03:20;;;;;;;74.67;28.00;;;;;;;;;;5048303;28;20037;-62
2022/12/18 05:05:46;;;;;;;77.57;30.47;;;;;;;;;;5048316;28;20315;-62
2022/12/18 05:08:11;;;;;;;78.73;29.37;;;;;;;;;;5048164;28;20286;-62
2022/12/18 05:10:37;;;;;;;82.90;29.77;;;;;;;;;;5048051;28;20049;-62
2022/12/18 05:13:03;;;;;;;69.17;28.13;;;;;;;;;;5047282;28;20450;-62
2022/12/18 05:15:30;;;;;;;72.73;27.73;;;;;;;;;;5048268;28;20045;-62
2022/12/18 05:17:57;;;;;;;72.47;27.37;;;;;;;;;;5048244;28;20284;-62
2022/12/18 05:20:23;;;;;;;77.37;28.80;;;;;;;;;;5046275;28;20858;-62
2022/12/18 05:22:49;;;;;;;72.37;29.00;;;;;;;;;;5048267;28;20657;-62
2022/12/18 05:25:15;;;;;;;77.93;28.20;;;;;;;;;;5047943;28;20303;-62
2022/12/18 05:27:41;;;;;;;76.47;25.97;;;;;;;;;;5060952;28;20298;-62
2022/12/18 05:30:08;;;;;;;79.10;26.70;;;;;;;;;;5053231;28;20867;-62
2022/12/18 05:32:34;;;;;;;65.10;24.03;;;;;;;;;;5048344;28;20402;-62
2022/12/18 05:35:00;;;;;;;67.63;27.17;;;;;;;;;;5048220;28;20366;-62
2022/12/18 05:37:26;;;;;;;69.30;27.70;;;;;;;;;;5048197;28;20315;-62
2022/12/18 05:39:52;;;;;;;67.53;27.13;;;;;;;;;;5048265;28;20302;-62
2022/12/18 05:42:18;;;;;;;69.67;25.67;;;;;;;;;;5047169;28;20284;-62
2022/12/18 05:44:45;;;;;;;67.00;27.53;;;;;;;;;;5046213;28;20797;-62
2022/12/18 05:47:11;;;;;;;63.53;25.63;;;;;;;;;;5047471;28;20295;-62
2022/12/18 05:49:37;;;;;;;73.83;26.53;;;;;;;;;;5050831;28;20292;-62
2022/12/18 05:52:03;;;;;;;70.07;24.40;;;;;;;;;;5051313;28;20283;-62
2022/12/18 05:54:29;;;;;;;62.70;24.43;;;;;;;;;;5060529;28;20548;-62
2022/12/18 05:56:55;;;;;;;68.77;26.83;;;;;;;;;;5068109;28;20317;-62
2022/12/18 05:59:21;;;;;;;60.00;23.63;;;;;;;;;;5069333;28;20348;-62
2022/12/18 06:01:47;;;;;;;71.97;25.87;;;;;;;;;;5068816;28;20275;-62
2022/12/18 06:04:13;;;;;;;61.17;24.50;;;;;;;;;;5069129;28;20287;-62
2022/12/18 06:06:39;;;;;;;61.50;22.73;;;;;;;;;;5069539;28;20699;-62
2022/12/18 06:09:08;;;;;;;60.33;24.50;;;;;;;;;;5059726;28;20323;-62
2022/12/18 06:11:34;;;;;;;64.97;25.77;;;;;;;;;;5050852;28;20292;-62
2022/12/18 06:14:01;;;;;;;53.80;21.80;;;;;;;;;;5050827;28;20284;-62
2022/12/18 06:16:27;;;;;;;58.97;23.00;;;;;;;;;;5050663;28;20455;-62
2022/12/18 06:18:54;;;;;;;71.40;25.83;;;;;;;;;;5049918;28;20349;-62
2022/12/18 06:21:20;;;;;;;62.90;24.00;;;;;;;;;;5050956;28;20734;-63
2022/12/18 06:23:46;;;;;;;64.80;24.47;;;;;;;;;;5059891;28;20290;-62
2022/12/18 06:26:13;;;;;;;59.93;24.03;;;;;;;;;;5069432;28;20322;-62
2022/12/18 06:28:39;;;;;;;53.13;21.17;;;;;;;;;;5066752;28;20689;-62
2022/12/18 06:31:05;;;;;;;63.30;25.47;;;;;;;;;;5060061;28;20294;-62
2022/12/18 06:33:31;;;;;;;64.87;25.00;;;;;;;;;;5070907;28;20287;-62
2022/12/18 06:36:05;;;;;;;52.77;23.60;;;;;;;;;;5053689;28;20287;-62
2022/12/18 06:38:31;;;;;;;66.07;24.80;;;;;;;;;;5051477;28;20298;-62
2022/12/18 06:40:58;;;;;;;54.63;21.93;;;;;;;;;;5050538;28;20051;-62
2022/12/18 06:43:24;;;;;;;58.53;22.63;;;;;;;;;;5052328;28;20294;-62
2022/12/18 06:45:52;;;;;;;64.50;22.80;;;;;;;;;;5049901;28;20712;-62
2022/12/18 06:48:19;;;;;;;59.83;22.57;;;;;;;;;;5050267;28;20306;-62
2022/12/18 06:50:45;;;;;;;49.23;21.40;;;;;;;;;;5051030;28;20760;-62
2022/12/18 06:53:12;;;;;;;47.57;20.70;;;;;;;;;;5069943;28;20792;-63
2022/12/18 06:55:38;;;;;;;50.07;20.63;;;;;;;;;;5069657;28;20691;-62
2022/12/18 06:58:04;;;;;;;57.97;22.50;;;;;;;;;;5070145;28;20336;-62
2022/12/18 07:00:30;;;;;;;52.90;21.23;;;;;;;;;;5069474;28;20055;-62
2022/12/18 07:02:56;;;;;;;61.20;21.43;;;;;;;;;;5070086;28;20315;-62
2022/12/18 07:05:22;;;;;;;53.43;20.13;;;;;;;;;;5069719;28;21563;-62
2022/12/18 07:07:48;;;;;;;42.20;19.67;;;;;;;;;;5050199;28;20300;-62
2022/12/18 07:10:14;;;;;;;45.33;19.60;;;;;;;;;;5062043;28;20484;-62
2022/12/18 07:12:40;;;;;;;45.13;19.60;;;;;;;;;;5052068;28;20370;-62
2022/12/18 07:15:07;;;;;;;52.20;20.40;;;;;;;;;;5068156;28;20297;-62
2022/12/18 07:17:33;;;;;;;43.37;18.37;;;;;;;;;;5069632;28;20295;-62
2022/12/18 07:19:59;;;;;;;39.97;16.93;;;;;;;;;;5069400;28;20282;-63
2022/12/18 07:22:25;;;;;;;42.17;17.63;;;;;;;;;;5049039;28;20303;-62
2022/12/18 07:24:52;;;;;;;52.63;20.73;;;;;;;;;;5049335;28;20429;-62
2022/12/18 07:27:18;;;;;;;51.93;19.07;;;;;;;;;;5049590;28;20333;-62
2022/12/18 07:29:44;;;;;;;52.00;22.50;;;;;;;;;;5049410;28;20346;-62
2022/12/18 07:32:10;;;;;;;43.53;19.93;;;;;;;;;;5067919;28;20283;-62
2022/12/18 07:34:36;;;;;;;53.00;20.60;;;;;;;;;;5065351;28;20318;-62
2022/12/18 07:37:02;;;;;;;45.53;20.07;;;;;;;;;;5049389;28;20299;-62
2022/12/18 07:39:28;;;;;;;45.23;19.20;;;;;;;;;;5049279;28;20337;-62
2022/12/18 07:42:36;;;;;;;43.43;20.23;;;;;;;;;;5048358;28;20650;-62
2022/12/18 07:44:43;;;;;;;47.77;19.40;;;;;;;;;;5047749;28;20356;-62
2022/12/18 07:47:09;;;;;;;49.27;20.20;;;;;;;;;;5048159;28;20696;-62
2022/12/18 07:49:36;;;;;;;47.53;20.83;;;;;;;;;;5049278;28;20283;-62
2022/12/18 07:52:02;;;;;;;46.37;20.03;;;;;;;;;;5048687;28;20306;-62
2022/12/18 07:54:28;;;;;;;50.10;19.30;;;;;;;;;;5047223;28;20378;-62
2022/12/18 07:56:54;;;;;;;42.10;18.53;;;;;;;;;;5048132;28;20957;-62
2022/12/18 07:59:20;;;;;;;37.17;18.20;;;;;;;;;;5048724;28;20724;-62
2022/12/18 08:01:46;;;;;;;49.30;18.47;;;;;;;;;;5060904;28;20291;-62
2022/12/18 08:04:13;;;;;;;46.43;19.73;;;;;;;;;;5068396;28;20271;-62
2022/12/18 08:06:39;;;;;;;43.67;19.27;;;;;;;;;;5062474;28;20321;-62
2022/12/18 08:09:05;;;;;;;37.17;19.33;;;;;;;;;;5063278;28;20743;-62
2022/12/18 08:11:31;;;;;;;49.23;19.73;;;;;;;;;;5067912;28;20541;-62
2022/12/18 08:13:58;;;;;;;44.93;18.23;;;;;;;;;;5068563;28;20286;-62
2022/12/18 08:16:24;;;;;;;43.80;20.23;;;;;;;;;;5055593;28;20365;-62
2022/12/18 08:18:52;;;;;;;43.30;19.20;;;;;;;;;;5047795;28;20361;-62
2022/12/18 08:21:22;;;;;;;38.93;17.13;;;;;;;;;;5048141;28;20623;-62
2022/12/18 08:23:49;;;;;;;39.77;16.30;;;;;;;;;;5048212;28;20604;-62
2022/12/18 08:26:16;;;;;;;38.60;17.40;;;;;;;;;;5047717;28;20394;-62
2022/12/18 08:28:43;;;;;;;36.27;17.73;;;;;;;;;;5047556;28;20295;-62
2022/12/18 08:31:09;;;;;;;41.47;17.57;;;;;;;;;;5046915;28;20302;-62
2022/12/18 08:33:37;;;;;;;37.03;16.43;;;;;;;;;;5056401;28;20322;-62
2022/12/18 08:36:04;;;;;;;39.80;17.97;;;;;;;;;;5063066;28;20341;-62
2022/12/18 08:38:30;;;;;;;35.80;16.60;;;;;;;;;;5066978;28;20587;-62
2022/12/18 08:41:07;;;;;;;40.80;20.17;;;;;;;;;;5067764;28;20283;-62
2022/12/18 08:46:19;;;;;;;31.70;16.57;;;;;;;;;;5065139;28;20314;-62
2022/12/18 08:48:45;;;;;;;33.77;15.30;;;;;;;;;;5057340;28;20311;-62
2022/12/18 08:51:11;;;;;;;31.20;15.90;;;;;;;;;;5048664;28;20307;-62
2022/12/18 08:53:37;;;;;;;31.30;16.07;;;;;;;;;;5055512;28;20298;-62
2022/12/18 08:56:04;;;;;;;36.23;16.10;;;;;;;;;;5054128;28;20291;-62
2022/12/18 08:58:30;;;;;;;27.73;14.60;;;;;;;;;;5057331;28;20332;-62
2022/12/18 09:01:03;;;;;;;35.77;16.53;;;;;;;;;;5055918;28;20295;-62
2022/12/18 09:03:30;;;;;;;35.25;16.17;;;;;;;;;;5067595;28;20290;-62
2022/12/18 09:05:56;;;;;;;33.37;15.43;;;;;;;;;;5066222;28;20056;-63
2022/12/18 09:08:22;;;;;;;34.87;15.27;;;;;;;;;;5067233;28;20313;-62
2022/12/18 09:10:49;;;;;;;30.97;14.83;;;;;;;;;;5058413;28;20303;-63
2022/12/18 09:13:16;;;;;;;29.73;15.23;;;;;;;;;;5059702;28;20702;-62
2022/12/18 09:15:43;;;;;;;28.30;14.93;;;;;;;;;;5067193;28;20287;-62
2022/12/18 09:18:09;;;;;;;28.60;14.17;;;;;;;;;;5065973;28;20283;-62
2022/12/18 09:20:36;;;;;;;31.53;15.03;;;;;;;;;;5065358;28;20283;-62
2022/12/18 09:23:02;;;;;;;30.37;14.90;;;;;;;;;;5063876;28;20401;-62
2022/12/18 09:25:32;;;;;;;28.27;14.80;;;;;;;;;;5063500;28;20380;-62
2022/12/18 09:27:59;;;;;;;27.47;14.80;;;;;;;;;;5070065;28;20314;-62
2022/12/18 09:30:25;;;;;;;22.00;12.07;;;;;;;;;;5068781;28;20792;-62
2022/12/18 09:32:51;;;;;;;23.93;12.23;;;;;;;;;;5071335;28;20298;-63
2022/12/18 09:35:18;;;;;;;22.47;11.73;;;;;;;;;;5069598;28;20290;-62
2022/12/18 09:37:44;;;;;;;25.83;13.40;;;;;;;;;;5068854;28;20283;-63
2022/12/18 09:40:14;;;;;;;23.03;11.87;;;;;;;;;;5061493;28;20291;-62
2022/12/18 09:42:40;;;;;;;23.57;11.30;;;;;;;;;;5058332;28;20289;-62
2022/12/18 09:45:12;;;;;;;23.77;11.57;;;;;;;;;;5067625;28;20341;-62
2022/12/18 09:47:39;;;;;;;23.30;12.17;;;;;;;;;;5071156;28;20818;-62
2022/12/18 09:50:14;;;;;;;21.00;11.47;;;;;;;;;;5068652;28;20283;-62
2022/12/18 09:52:43;;;;;;;23.53;12.17;;;;;;;;;;5067320;28;20796;-63
2022/12/18 09:55:09;;;;;;;22.13;11.23;;;;;;;;;;5064360;28;20351;-63
2022/12/18 09:57:38;;;;;;;23.23;11.83;;;;;;;;;;5061931;28;20318;-62
2022/12/18 10:00:09;;;;;;;24.50;11.83;;;;;;;;;;5070204;28;20788;-62
2022/12/18 10:02:35;;;;;;;23.57;11.80;;;;;;;;;;5068626;28;20290;-63
2022/12/18 10:05:01;;;;;;;21.03;11.03;;;;;;;;;;5065234;28;20287;-62
2022/12/18 10:07:37;;;;;;;23.10;10.73;;;;;;;;;;5067229;28;20665;-62
2022/12/18 10:10:07;;;;;;;20.80;10.47;;;;;;;;;;5069182;28;20685;-63
2022/12/18 10:12:52;;;;;;;19.57;9.90;;;;;;;;;;5068866;28;20792;-62
2022/12/18 10:15:18;;;;;;;18.60;10.60;;;;;;;;;;5069091;28;20815;-62
2022/12/18 10:18:04;;;;;;;20.73;11.03;;;;;;;;;;5070343;28;20290;-63
2022/12/18 10:20:43;;;;;;;19.57;10.87;;;;;;;;;;5069806;28;20301;-62
2022/12/18 10:23:12;;;;;;;22.23;11.07;;;;;;;;;;5063124;28;20657;-63
2022/12/18 10:25:41;;;;;;;19.27;9.37;;;;;;;;;;5066917;28;20291;-63
2022/12/18 10:28:11;;;;;;;23.17;10.03;;;;;;;;;;5063680;28;20315;-63
2022/12/18 10:30:40;;;;;;;21.33;10.77;;;;;;;;;;5059061;28;20283;-63
2022/12/18 10:33:09;;;;;;;17.63;10.30;;;;;;;;;;5066016;28;20282;-63
2022/12/18 10:35:36;;;;;;;25.03;11.93;;;;;;;;;;5054091;28;20661;-63
2022/12/18 10:38:22;;;;;;;19.17;9.30;;;;;;;;;;5054982;28;20302;-62
2022/12/18 10:40:53;;;;;;;21.30;10.20;;;;;;;;;;5057030;28;20300;-63
2022/12/18 10:43:26;;;;;;;19.03;10.30;;;;;;;;;;5068915;28;20290;-62
2022/12/18 10:46:05;;;;;;;19.42;9.15;;;;;;;;;;5060452;28;20398;-63
2022/12/18 10:48:32;;;;;;;21.87;11.23;;;;;;;;;;5058095;28;20083;-63
2022/12/18 10:50:58;;;;;;;20.87;11.00;;;;;;;;;;5063548;28;20725;-63
2022/12/18 10:53:25;;;;;;;16.50;8.67;;;;;;;;;;5067442;28;20326;-63
2022/12/18 10:55:54;;;;;;;15.67;8.60;;;;;;;;;;5086246;28;20290;-63
2022/12/18 10:58:25;;;;;;;16.00;9.00;;;;;;;;;;5070446;28;20330;-62
2022/12/18 11:01:06;;;;;;;15.97;8.97;;;;;;;;;;5069361;28;20382;-63
2022/12/18 11:03:43;;;;;;;17.73;9.13;;;;;;;;;;5064043;28;20394;-62
2022/12/18 11:06:11;;;;;;;15.83;8.87;;;;;;;;;;5068047;28;20313;-62
2022/12/18 11:08:37;;;;;;;17.73;9.27;;;;;;;;;;5063116;28;20922;-62
2022/12/18 11:11:04;;;;;;;16.40;9.40;;;;;;;;;;5069689;28;20816;-63
2022/12/18 11:13:31;;;;;;;15.03;7.73;;;;;;;;;;5068482;28;20287;-62
2022/12/18 11:15:58;;;;;;;17.73;8.57;;;;;;;;;;5068579;28;20523;-62
2022/12/18 11:18:31;;;;;;;16.10;8.17;;;;;;;;;;5059122;28;20287;-62
2022/12/18 11:20:59;;;;;;;14.65;8.15;;;;;;;;;;5060967;28;20340;-63
2022/12/18 11:23:26;;;;;;;18.30;9.00;;;;;;;;;;5066458;28;20059;-63
2022/12/18 11:25:54;;;;;;;15.90;8.63;;;;;;;;;;5067512;28;20311;-63
2022/12/18 11:28:26;;;;;;;12.90;7.17;;;;;;;;;;5068230;28;20298;-63
2022/12/18 11:31:18;;;;;;;13.83;7.27;;;;;;;;;;5069377;28;20698;-62
2022/12/18 11:33:46;;;;;;;14.07;7.97;;;;;;;;;;5055933;28;20327;-62
2022/12/18 11:36:13;;;;;;;13.87;8.20;;;;;;;;;;5067106;28;20385;-62
2022/12/18 11:38:44;;;;;;;14.60;8.00;;;;;;;;;;5065609;28;20816;-63
2022/12/18 11:44:30;;;;;;;17.60;8.77;;;;;;;;;;5048493;28;20378;-62
2022/12/18 11:47:01;;;;;;;13.07;6.93;;;;;;;;;;5065209;28;20308;-63
2022/12/18 11:49:36;;;;;;;13.63;7.50;;;;;;;;;;5054427;28;20309;-63
2022/12/18 11:52:10;;;;;;;12.00;7.33;;;;;;;;;;5060911;28;20818;-62
2022/12/18 11:54:36;;;;;;;;;;;;;;;;;;5052727;28;20287;-62
2022/12/18 11:57:07;;;;;;;12.30;6.70;;;;;;;;;;5055973;28;19955;-63
2022/12/18 11:59:40;;;;;;;12.33;6.77;;;;;;;;;;5068941;28;20064;-63
2022/12/18 12:02:19;;;;;;;15.88;6.93;;;;;;;;;;5057111;28;20326;-62
2022/12/18 12:05:01;;;;;;;11.47;6.90;;;;;;;;;;5064294;28;20064;-63
2022/12/18 12:07:39;;;;;;;11.23;6.07;;;;;;;;;;5067178;28;20297;-63
2022/12/18 12:10:05;;;;;;;12.77;6.80;;;;;;;;;;5057623;28;20307;-62
2022/12/18 12:12:53;;;;;;;11.43;6.43;;;;;;;;;;5068652;28;20287;-62
2022/12/18 12:15:19;;;;;;;10.03;5.87;;;;;;;;;;5066695;28;20657;-62
2022/12/18 12:18:08;;;;;;;15.23;7.50;;;;;;;;;;5065656;28;20744;-63
2022/12/18 12:20:54;;;;;;;10.20;5.57;;;;;;;;;;5064038;28;20307;-62
2022/12/18 12:23:29;;;;;;;10.90;6.20;;;;;;;;;;5061517;28;20391;-63
2022/12/18 12:26:02;;;;;;;10.10;5.87;;;;;;;;;;5059586;28;20311;-62
2022/12/18 12:28:47;;;;;;;10.25;5.50;;;;;;;;;;5057825;28;20353;-62
2022/12/18 12:31:23;;;;;;;10.00;5.70;;;;;;;;;;5067579;28;20118;-62
2022/12/18 12:33:52;;;;;;;12.10;5.50;;;;;;;;;;5067448;28;20283;-62
2022/12/18 12:36:18;;;;;;;10.07;6.03;;;;;;;;;;5064600;28;20282;-62
2022/12/18 12:38:51;;;;;;;10.57;5.20;;;;;;;;;;5067722;28;20851;-62
2022/12/18 12:44:05;;;;;;;8.70;5.97;;;;;;;;;;5067286;28;20330;-62
2022/12/18 12:46:34;;;;;;;10.80;6.27;;;;;;;;;;5067619;28;20391;-62
2022/12/18 12:49:03;;;;;;;10.47;5.00;;;;;;;;;;5067509;28;20295;-62
2022/12/18 12:51:32;;;;;;;10.10;4.77;;;;;;;;;;5057631;28;20295;-62
2022/12/18 12:54:00;;;;;;;9.07;4.73;;;;;;;;;;5048003;28;20287;-62
2022/12/18 12:56:38;;;;;;;9.00;4.80;;;;;;;;;;5047014;28;20333;-62
2022/12/18 12:59:23;;;;;;;10.63;5.30;;;;;;;;;;5047666;28;20284;-62
2022/12/18 13:02:08;;;;;;;8.10;4.73;;;;;;;;;;5047748;28;20291;-62
2022/12/18 13:04:41;;;;;;;8.37;4.80;;;;;;;;;;5066891;28;20302;-62
2022/12/18 13:07:14;;;;;;;11.40;4.78;;;;;;;;;;5067651;28;20311;-62
2022/12/18 13:09:59;;;;;;;8.55;5.32;;;;;;;;;;5067958;28;20040;-62
2022/12/18 13:15:29;;;;;;;10.27;5.40;;;;;;;;;;5067474;28;20318;-62
2022/12/18 13:18:24;;;;;;;9.20;5.83;;;;;;;;;;5059022;28;20311;-62
2022/12/18 13:20:59;;;;;;;8.17;4.60;;;;;;;;;;5042564;28;20296;-62
2022/12/18 13:23:28;;;;;;;7.53;4.13;;;;;;;;;;5046150;28;20292;-62
2022/12/18 13:25:58;;;;;;;8.07;4.70;;;;;;;;;;5047444;28;20303;-62
2022/12/18 13:28:33;;;;;;;8.83;4.57;;;;;;;;;;5047250;28;20296;-62
2022/12/18 13:31:00;;;;;;;8.40;4.60;;;;;;;;;;5047392;28;20303;-62
2022/12/18 13:33:27;;;;;;;8.17;5.00;;;;;;;;;;5047217;28;20298;-62
2022/12/18 13:36:09;;;;;;;8.63;4.57;;;;;;;;;;5046653;28;20804;-63
2022/12/18 13:38:36;;;;;;;11.03;5.30;;;;;;;;;;5047220;28;20664;-62
2022/12/18 13:41:05;;;;;;;9.70;5.03;;;;;;;;;;5047172;28;20290;-62
2022/12/18 13:43:57;;;;;;;11.53;4.83;;;;;;;;;;5046907;28;20288;-62
2022/12/18 13:46:41;;;;;;;10.07;4.40;;;;;;;;;;5047839;28;20351;-62
2022/12/18 13:49:10;;;;;;;9.60;5.03;;;;;;;;;;5047004;28;20304;-62
2022/12/18 13:51:40;;;;;;;9.00;5.27;;;;;;;;;;5047405;28;20773;-62
2022/12/18 13:54:20;;;;;;;12.50;5.10;;;;;;;;;;5046741;28;20368;-62
2022/12/18 13:56:47;;;;;;;7.53;4.30;;;;;;;;;;5046860;28;20639;-62
2022/12/18 13:59:21;;;;;;;7.67;4.37;;;;;;;;;;5046956;28;20864;-62
2022/12/18 14:01:48;;;;;;;8.90;4.40;;;;;;;;;;5046983;28;20299;-62
2022/12/18 14:04:20;;;;;;;9.83;4.87;;;;;;;;;;5047332;28;20280;-62
2022/12/18 14:06:47;;;;;;;10.07;4.50;;;;;;;;;;5047098;28;20326;-62
2022/12/18 14:09:25;;;;;;;12.50;5.13;;;;;;;;;;5048056;28;20662;-62
2022/12/18 14:11:51;;;;;;;8.10;4.40;;;;;;;;;;5058642;28;20880;-62
2022/12/18 14:14:18;;;;;;;10.13;5.27;;;;;;;;;;5050495;28;20820;-62
2022/12/18 14:16:44;;;;;;;14.37;7.47;;;;;;;;;;5050569;28;20835;-62
2022/12/18 14:19:18;;;;;;;10.10;6.13;;;;;;;;;;5050367;28;20788;-62
2022/12/18 14:21:48;;;;;;;11.10;5.13;;;;;;;;;;5049950;28;20341;-62
2022/12/18 14:24:15;;;;;;;9.13;5.40;;;;;;;;;;5048849;28;20049;-62
2022/12/18 14:26:42;;;;;;;9.13;5.50;;;;;;;;;;5049902;28;20768;-62
2022/12/18 14:29:28;;;;;;;10.37;5.20;;;;;;;;;;5050424;28;20292;-62
2022/12/18 14:32:15;;;;;;;10.53;4.80;;;;;;;;;;5049693;28;20346;-62
2022/12/18 14:34:41;;;;;;;9.00;5.30;;;;;;;;;;5050084;28;20699;-62
2022/12/18 14:37:10;;;;;;;8.60;5.23;;;;;;;;;;5050189;28;20299;-62
2022/12/18 14:39:36;;;;;;;9.13;5.60;;;;;;;;;;5057340;28;20298;-62
2022/12/18 14:42:02;;;;;;;10.97;5.90;;;;;;;;;;5057806;28;20291;-62
2022/12/18 14:44:29;;;;;;;11.27;5.63;;;;;;;;;;5049315;28;20417;-62
2022/12/18 14:46:55;;;;;;;11.10;5.27;;;;;;;;;;5049764;28;20308;-62